Another Hard Day at the Office Weather Stats

 
 
 

High monthly outside Temperature, 22.8 , C
Low monthly outside Temperature, -1.0 , C
High yearly outside Temperature, 30.9 , C
Low yearly outside Temperature, -2.2 , C

Low monthly barometer, 1001.1 , mb
High monthly barometer, 1028.0 , mb
Low yearly barometer, 975.0 , mb
High yearly barometer 1041.1 , mb

High wind speed, 25.0 , mph
Time of High wind speed, 21:37 , mph
High monthly wind speed, 47.0 , mph
High yearly wind speed, 55.0 , mph

 

 




3126
                    Temp     Hi    Low   Out    Dew  Wind  Wind   Wind    Hi    Hi   Wind   Heat    THW                Rain    Heat    Cool    In     In    In     In     In   In Air  Wind  Wind    ISS   Arc.
  Date    Time     Out   Temp   Temp   Hum    Pt. Speed   Dir    Run Speed   Dir  Chill  Index  Index   Bar    Rain  Rate    D-D     D-D    Temp   Hum    Dew   Heat    EMC Density  Samp   Tx   Recept  Int.
---------------------------------------------------------------------------------------------------------------------------------------------------------------------------------------------------------------
24/04/17   0:05   10.3   10.3   10.3    90    8.7   7.0    SW   0.58   9.0    SW    8.8   10.4    8.9  1021.4  0.00  0.00   0.028   0.000   21.8    48   10.3   20.9   8.87  .0744    115    1    100.0    5 
24/04/17   0:10   10.3   10.3   10.3    90    8.7   7.0    SW   0.58  10.0    SW    8.8   10.4    8.9  1021.4  0.00  0.00   0.028   0.000   21.8    48   10.3   20.9   8.87  .0744    113    1     99.1    5 
24/04/17   0:15   10.3   10.3   10.2    90    8.7   8.0    SW   0.67  10.0    SW    8.4   10.4    8.6  1021.3  0.00  0.00   0.028   0.000   21.7    48   10.2   20.9   8.87  .0744    118    1    100.0    5 
24/04/17   0:20   10.3   10.3   10.3    90    8.8   8.0    SW   0.67  10.0    SW    8.4   10.4    8.6  1021.3  0.00  0.00   0.028   0.000   21.7    48   10.2   20.8   8.87  .0745    116    1    100.0    5 
24/04/17   0:25   10.3   10.3   10.3    90    8.8   8.0    SW   0.67  11.0    SW    8.4   10.4    8.6  1021.4  0.00  0.00   0.028   0.000   21.7    48   10.2   20.8   8.87  .0745    116    1    100.0    5 
24/04/17   0:30   10.3   10.3   10.3    90    8.8   8.0    SW   0.67  10.0    SW    8.4   10.4    8.6  1021.3  0.00  0.00   0.028   0.000   21.6    48   10.1   20.7   8.87  .0745    117    1    100.0    5 
24/04/17   0:35   10.3   10.4   10.3    90    8.8   9.0    SW   0.75  12.0    SW    8.1   10.4    8.2  1021.2  0.00  0.00   0.028   0.000   21.6    48   10.1   20.7   8.87  .0745    117    1    100.0    5 
24/04/17   0:40   10.4   10.4   10.3    91    9.0   8.0    SW   0.67  10.0    SW    8.5   10.6    8.7  1021.1  0.00  0.00   0.028   0.000   21.6    48   10.1   20.6   8.87  .0745    117    1    100.0    5 
24/04/17   0:45   10.4   10.4   10.4    91    9.0   9.0    SW   0.75  11.0    SW    8.3   10.6    8.4  1021.1  0.00  0.00   0.027   0.000   21.6    48   10.1   20.6   8.87  .0745    116    1    100.0    5 
24/04/17   0:50   10.4   10.5   10.4    91    9.0   7.0    SW   0.58  10.0    SW    9.0   10.6    9.2  1020.9  0.00  0.00   0.027   0.000   21.5    48   10.0   20.6   8.86  .0745    115    1    100.0    5 
24/04/17   0:55   10.5   10.5   10.4    91    9.1   8.0    SW   0.67  10.0    SW    8.7   10.7    8.8  1021.0  0.00  0.00   0.027   0.000   21.5    48   10.0   20.6   8.86  .0745    115    1    100.0    5 
24/04/17   1:00   10.5   10.5   10.4    91    9.1   8.0   WSW   0.67  10.0    SW    8.7   10.7    8.8  1020.8  0.00  0.00   0.027   0.000   21.5    48   10.0   20.6   8.86  .0745    117    1    100.0    5 
24/04/17   1:05   10.5   10.6   10.5    91    9.1   8.0   WSW   0.67  10.0   WSW    8.7   10.7    8.8  1020.8  0.00  0.00   0.027   0.000   21.5    48   10.0   20.6   8.86  .0745    117    1    100.0    5 
24/04/17   1:10   10.6   10.6   10.5    91    9.1   8.0   WSW   0.67  11.0    SW    8.7   10.7    8.8  1020.7  0.00  0.00   0.027   0.000   21.4    48   10.0   20.5   8.86  .0745    117    1    100.0    5 
24/04/17   1:15   10.6   10.6   10.6    91    9.1   9.0   WSW   0.75  11.0    SW    8.4   10.7    8.5  1020.7  0.00  0.00   0.027   0.000   21.4    48   10.0   20.5   8.86  .0745    118    1    100.0    5 
24/04/17   1:20   10.6   10.6   10.5    92    9.3   8.0   WSW   0.67  11.0   WSW    8.7   10.7    8.9  1020.6  0.00  0.00   0.027   0.000   21.4    48    9.9   20.4   8.86  .0745    117    1    100.0    5 
24/04/17   1:25   10.6   10.6   10.6    92    9.3   9.0    SW   0.75  12.0    SW    8.4   10.7    8.6  1020.5  0.00  0.00   0.027   0.000   21.4    48    9.9   20.4   8.86  .0745    115    1    100.0    5 
24/04/17   1:30   10.6   10.6   10.6    92    9.3   9.0    SW   0.75  11.0    SW    8.4   10.7    8.6  1020.5  0.00  0.00   0.027   0.000   21.3    48    9.9   20.3   8.86  .0745    117    1    100.0    5 
24/04/17   1:35   10.6   10.6   10.6    92    9.3   9.0   WSW   0.75  12.0   WSW    8.4   10.7    8.6  1020.4  0.00  0.00   0.027   0.000   21.3    48    9.9   20.3   8.86  .0745    117    1    100.0    5 
24/04/17   1:40   10.6   10.6   10.6    92    9.4   9.0   WSW   0.75  12.0   WSW    8.4   10.8    8.6  1020.3  0.00  0.00   0.027   0.000   21.3    48    9.8   20.3   8.86  .0745    117    1    100.0    5 
24/04/17   1:45   10.7   10.7   10.6    92    9.4   9.0   WSW   0.75  11.0   WSW    8.5   10.8    8.7  1020.4  0.00  0.00   0.027   0.000   21.3    48    9.8   20.3   8.86  .0745    117    1    100.0    5 
24/04/17   1:50   10.7   10.7   10.6    92    9.4   9.0    SW   0.75  12.0    SW    8.5   10.8    8.7  1020.3  0.00  0.00   0.027   0.000   21.3    48    9.8   20.3   8.86  .0745    117    1    100.0    5 
24/04/17   1:55   10.7   10.7   10.6    92    9.4   9.0   WSW   0.75  12.0   WSW    8.5   10.8    8.7  1020.2  0.00  0.00   0.027   0.000   21.2    48    9.8   20.2   8.85  .0745    116    1    100.0    5 
24/04/17   2:00   10.7   10.7   10.6    92    9.4   8.0   WSW   0.67  10.0   WSW    8.8   10.8    9.0  1020.2  0.00  0.00   0.027   0.000   21.2    48    9.8   20.2   8.85  .0745    117    1    100.0    5 
24/04/17   2:05   10.7   10.7   10.7    92    9.5   8.0   WSW   0.67  11.0    SW    8.9   10.9    9.1  1020.1  0.00  0.00   0.026   0.000   21.2    48    9.8   20.2   8.85  .0745    117    1    100.0    5 
24/04/17   2:10   10.7   10.7   10.7    92    9.5   9.0   WSW   0.75  11.0   WSW    8.6   10.9    8.7  1020.1  0.00  0.00   0.026   0.000   21.2    48    9.7   20.1   8.85  .0745    117    1    100.0    5 
24/04/17   2:15   10.8   10.8   10.7    93    9.7   9.0   WSW   0.75  11.0   WSW    8.6   10.9    8.8  1020.1  0.00  0.00   0.026   0.000   21.2    48    9.7   20.1   8.85  .0745    117    1    100.0    5 
24/04/17   2:20   10.8   10.8   10.8    93    9.7   7.0   WSW   0.58  10.0   WSW    9.4   10.9    9.6  1019.9  0.00  0.00   0.026   0.000   21.1    48    9.7   20.1   8.85  .0745    117    1    100.0    5 
24/04/17   2:25   10.8   10.8   10.8    93    9.7   8.0   WSW   0.67  11.0   WSW    9.0   10.9    9.2  1019.9  0.00  0.00   0.026   0.000   21.1    48    9.7   20.1   8.85  .0745    116    1    100.0    5 
24/04/17   2:30   10.8   10.8   10.8    93    9.7   8.0   WSW   0.67  10.0   WSW    9.0   10.9    9.2  1019.8  0.00  0.00   0.026   0.000   21.1    48    9.6   20.0   8.85  .0745    117    1    100.0    5 
24/04/17   2:35   10.8   10.8   10.8    93    9.7   6.0   WSW   0.50  10.0   WSW    9.6   10.9    9.8  1019.7  0.00  0.00   0.026   0.000   21.1    48    9.6   20.0   8.85  .0745    117    1    100.0    5 
24/04/17   2:40   10.8   10.8   10.8    93    9.7   7.0   WSW   0.58  10.0   WSW    9.4   11.0    9.6  1019.7  0.00  0.00   0.026   0.000   21.1    48    9.6   20.0   8.85  .0745    117    1    100.0    5 
24/04/17   2:45   10.8   10.8   10.8    93    9.7   6.0   WSW   0.50  10.0   WSW    9.7   11.0    9.9  1019.5  0.00  0.00   0.026   0.000   21.0    48    9.6   20.0   8.85  .0745    116    1    100.0    5 
24/04/17   2:50   10.8   10.8   10.8    93    9.7   5.0   WSW   0.42   9.0   WSW   10.0   11.0   10.2  1019.5  0.00  0.00   0.026   0.000   21.0    48    9.6   20.0   8.85  .0745    116    1    100.0    5 
24/04/17   2:55   10.8   10.9   10.8    93    9.7   7.0   WSW   0.58  10.0   WSW    9.4   11.0    9.6  1019.5  0.00  0.00   0.026   0.000   21.0    48    9.6   20.0   8.85  .0745    117    1    100.0    5 
24/04/17   3:00   10.8   10.8   10.8    93    9.7   2.0   WSW   0.17   7.0   WSW   10.8   11.0   11.0  1019.3  0.00  0.00   0.026   0.000   20.9    48    9.5   19.9   8.86  .0745    116    1    100.0    5 
24/04/17   3:05   10.8   10.8   10.8    92    9.5   0.0   ---   0.00   0.0   ---   10.8   10.9   10.9  1019.3  0.00  0.00   0.026   0.000   20.9    48    9.5   19.9   8.86  .0745    116    1    100.0    5 
24/04/17   3:10   10.7   10.8   10.7    92    9.5   0.0   ---   0.00   0.0   ---   10.7   10.9   10.9  1019.2  0.00  0.00   0.026   0.000   20.9    48    9.5   19.9   8.86  .0745    116    1    100.0    5 
24/04/17   3:15   10.6   10.7   10.6    92    9.4   0.0   ---   0.00   0.0   ---   10.6   10.8   10.8  1019.2  0.00  0.00   0.027   0.000   20.9    48    9.5   19.9   8.86  .0745    117    1    100.0    5 
24/04/17   3:20   10.5   10.6   10.5    92    9.3   0.0   ---   0.00   0.0   ---   10.5   10.7   10.7  1019.1  0.00  0.00   0.027   0.000   20.9    48    9.5   19.9   8.86  .0745    117    1    100.0    5 
24/04/17   3:25   10.4   10.5   10.4    92    9.2   0.0   ---   0.00   0.0   ---   10.4   10.6   10.6  1019.0  0.00  0.00   0.027   0.000   20.9    48    9.5   19.9   8.86  .0745    118    1    100.0    5 
24/04/17   3:30   10.4   10.4   10.4    92    9.1   0.0   ---   0.00   0.0   ---   10.4   10.6   10.6  1019.0  0.00  0.00   0.028   0.000   20.9    48    9.5   19.9   8.86  .0745    117    1    100.0    5 
24/04/17   3:35   10.3   10.4   10.3    92    9.1   0.0   ---   0.00   0.0   ---   10.3   10.5   10.5  1019.0  0.00  0.00   0.028   0.000   20.8    48    9.4   19.9   8.86  .0746    116    1    100.0    5 
24/04/17   3:40   10.3   10.3   10.3    92    9.0   0.0   ---   0.00   0.0   ---   10.3   10.4   10.4  1019.0  0.00  0.00   0.028   0.000   20.8    48    9.4   19.9   8.86  .0745    116    1    100.0    5 
24/04/17   3:45   10.3   10.3   10.3    92    9.0   0.0   ---   0.00   0.0   ---   10.3   10.4   10.4  1019.0  0.00  0.00   0.028   0.000   20.8    48    9.4   19.9   8.86  .0745    116    1    100.0    5 
24/04/17   3:50   10.2   10.3   10.2    92    9.0   0.0   ---   0.00   0.0   ---   10.2   10.4   10.4  1018.9  0.00  0.00   0.028   0.000   20.8    48    9.4   19.8   8.86  .0746    117    1    100.0    5 
24/04/17   3:55   10.2   10.3   10.2    92    9.0   0.0   ---   0.00   0.0   ---   10.2   10.4   10.4  1018.9  0.00  0.00   0.028   0.000   20.8    48    9.4   19.8   8.86  .0746    117    1    100.0    5 
24/04/17   4:00   10.2   10.2   10.2    92    9.0   0.0   ---   0.00   0.0   ---   10.2   10.4   10.4  1018.8  0.00  0.00   0.028   0.000   20.8    48    9.4   19.8   8.86  .0746    117    1    100.0    5 
24/04/17   4:05   10.2   10.2   10.2    92    8.9   0.0   ---   0.00   0.0   ---   10.2   10.4   10.4  1018.8  0.00  0.00   0.028   0.000   20.7    48    9.3   19.8   8.86  .0746    117    1    100.0    5 
24/04/17   4:10   10.2   10.2   10.2    92    8.9   0.0   ---   0.00   0.0   ---   10.2   10.4   10.4  1018.7  0.00  0.00   0.028   0.000   20.7    48    9.3   19.8   8.86  .0746    117    1    100.0    5 
24/04/17   4:15   10.1   10.2   10.1    92    8.9   0.0   ---   0.00   0.0   ---   10.1   10.3   10.3  1018.7  0.00  0.00   0.029   0.000   20.7    48    9.3   19.8   8.86  .0746    116    1    100.0    5 
24/04/17   4:20   10.1   10.2   10.1    92    8.9   0.0   ---   0.00   0.0   ---   10.1   10.3   10.3  1018.7  0.00  0.00   0.029   0.000   20.7    48    9.3   19.8   8.86  .0746    117    1    100.0    5 
24/04/17   4:25   10.1   10.2   10.1    92    8.9   0.0   ---   0.00   0.0   ---   10.1   10.3   10.3  1018.6  0.00  0.00   0.029   0.000   20.7    48    9.3   19.7   8.87  .0746    117    1    100.0    5 
24/04/17   4:30   10.1   10.2   10.1    92    8.9   0.0   ---   0.00   0.0   ---   10.1   10.3   10.3  1018.5  0.00  0.00   0.029   0.000   20.7    48    9.3   19.7   8.87  .0746    118    1    100.0    5 
24/04/17   4:35   10.1   10.1   10.1    92    8.9   0.0   ---   0.00   0.0   ---   10.1   10.3   10.3  1018.4  0.00  0.00   0.029   0.000   20.7    48    9.3   19.7   8.87  .0746    117    1    100.0    5 
24/04/17   4:40   10.1   10.1   10.1    92    8.8   0.0   ---   0.00   0.0   ---   10.1   10.3   10.3  1018.3  0.00  0.00   0.029   0.000   20.6    48    9.2   19.7   8.87  .0746    116    1    100.0    5 
24/04/17   4:45   10.1   10.1   10.1    92    8.8   0.0   ---   0.00   0.0   ---   10.1   10.3   10.3  1018.3  0.00  0.00   0.029   0.000   20.6    48    9.2   19.7   8.87  .0746    115    1    100.0    5 
24/04/17   4:50   10.1   10.1   10.1    92    8.8   0.0   ---   0.00   0.0   ---   10.1   10.3   10.3  1018.3  0.00  0.00   0.029   0.000   20.6    48    9.2   19.7   8.87  .0746    116    1    100.0    5 
24/04/17   4:55   10.1   10.1   10.0    92    8.8   0.0   ---   0.00   0.0   ---   10.1   10.3   10.3  1018.3  0.00  0.00   0.029   0.000   20.6    48    9.2   19.7   8.87  .0746    117    1    100.0    5 
24/04/17   5:00   10.1   10.1   10.1    92    8.8   0.0   ---   0.00   0.0   ---   10.1   10.3   10.3  1018.2  0.00  0.00   0.029   0.000   20.6    48    9.2   19.7   8.87  .0746    117    1    100.0    5 
24/04/17   5:05   10.1   10.1   10.1    92    8.8   0.0   ---   0.00   0.0   ---   10.1   10.3   10.3  1018.2  0.00  0.00   0.029   0.000   20.6    48    9.2   19.7   8.87  .0746    117    1    100.0    5 
24/04/17   5:10   10.1   10.1   10.1    92    8.8   0.0   ---   0.00   0.0   ---   10.1   10.3   10.3  1018.1  0.00  0.00   0.029   0.000   20.6    48    9.2   19.7   8.87  .0746    117    1    100.0    5 
24/04/17   5:15   10.1   10.1   10.1    92    8.8   0.0   ---   0.00   0.0   ---   10.1   10.3   10.3  1018.1  0.00  0.00   0.029   0.000   20.6    48    9.2   19.7   8.87  .0746    117    1    100.0    5 
24/04/17   5:20   10.1   10.1   10.1    92    8.9   0.0   ---   0.00   0.0   ---   10.1   10.3   10.3  1018.0  0.00  0.00   0.029   0.000   20.5    48    9.1   19.6   8.87  .0746    117    1    100.0    5 
24/04/17   5:25   10.2   10.2   10.1    93    9.1   0.0   ---   0.00   0.0   ---   10.2   10.4   10.4  1018.0  0.00  0.00   0.028   0.000   20.5    48    9.1   19.6   8.87  .0746    117    1    100.0    5 
24/04/17   5:30   10.2   10.2   10.2    93    9.1   0.0   ---   0.00   0.0   ---   10.2   10.4   10.4  1017.9  0.00  0.00   0.028   0.000   20.4    48    9.1   19.6   8.87  .0746    118    1    100.0    5 
24/04/17   5:35   10.2   10.2   10.2    93    9.1   0.0   ---   0.00   0.0   ---   10.2   10.4   10.4  1017.9  0.00  0.00   0.028   0.000   20.4    48    9.1   19.6   8.87  .0746    115    1    100.0    5 
24/04/17   5:40   10.2   10.3   10.2    93    9.1   0.0   ---   0.00   0.0   ---   10.2   10.4   10.4  1017.9  0.00  0.00   0.028   0.000   20.4    48    9.1   19.6   8.87  .0746    116    1    100.0    5 
24/04/17   5:45   10.3   10.3   10.2    93    9.2   0.0   ---   0.00   0.0   ---   10.3   10.5   10.5  1017.7  0.00  0.00   0.028   0.000   20.4    48    9.0   19.5   8.88  .0746    117    1    100.0    5 
24/04/17   5:50   10.3   10.3   10.3    93    9.2   0.0   ---   0.00   0.0   ---   10.3   10.5   10.5  1017.7  0.00  0.00   0.028   0.000   20.4    48    9.0   19.5   8.88  .0746    117    1    100.0    5 
24/04/17   5:55   10.2   10.3   10.2    93    9.1   0.0   ---   0.00   0.0   ---   10.2   10.4   10.4  1017.8  0.00  0.00   0.028   0.000   20.4    48    9.0   19.5   8.88  .0746    117    1    100.0    5 
24/04/17   6:00   10.2   10.3   10.2    92    8.9   0.0   ---   0.00   0.0   ---   10.2   10.4   10.4  1017.7  0.00  0.00   0.028   0.000   20.4    49    9.3   19.6   9.08  .0746    117    1    100.0    5 
24/04/17   6:05   10.1   10.2   10.1    92    8.8   0.0   ---   0.00   0.0   ---   10.1   10.3   10.3  1017.6  0.00  0.00   0.029   0.000   20.3    49    9.3   19.5   9.08  .0746    117    1    100.0    5 
24/04/17   6:10   10.1   10.1   10.0    92    8.8   0.0     W   0.00   5.0     W   10.1   10.3   10.3  1017.7  0.00  0.00   0.029   0.000   20.3    49    9.3   19.5   9.08  .0746    117    1    100.0    5 
24/04/17   6:15   10.1   10.1   10.0    92    8.8   0.0   ---   0.00   0.0   ---   10.1   10.3   10.3  1017.6  0.00  0.00   0.029   0.000   20.3    49    9.3   19.5   9.08  .0746    117    1    100.0    5 
24/04/17   6:20   10.0   10.0   10.0    92    8.8   0.0   ---   0.00   0.0   ---   10.0   10.2   10.2  1017.6  0.00  0.00   0.029   0.000   20.3    49    9.3   19.5   9.08  .0746    117    1    100.0    5 
24/04/17   6:25    9.9   10.0    9.9    92    8.7   0.0   ---   0.00   0.0   ---    9.9   10.2   10.2  1017.6  0.00  0.00   0.029   0.000   20.3    49    9.2   19.5   9.08  .0746    117    1    100.0    5 
24/04/17   6:30    9.9   10.0    9.9    92    8.7   0.0   ---   0.00   0.0   ---    9.9   10.2   10.2  1017.6  0.00  0.00   0.029   0.000   20.3    49    9.2   19.5   9.08  .0746    117    1    100.0    5 
24/04/17   6:35    9.9    9.9    9.9    92    8.7   0.0   ---   0.00   0.0   ---    9.9   10.2   10.2  1017.6  0.00  0.00   0.029   0.000   20.3    49    9.2   19.5   9.08  .0746    118    1    100.0    5 
24/04/17   6:40    9.9    9.9    9.9    93    8.9   0.0   ---   0.00   0.0   ---    9.9   10.2   10.2  1017.6  0.00  0.00   0.029   0.000   20.3    49    9.2   19.5   9.08  .0746    117    1    100.0    5 
24/04/17   6:45    9.9    9.9    9.9    93    8.9   0.0   ---   0.00   0.0   ---    9.9   10.2   10.2  1017.6  0.00  0.00   0.029   0.000   20.2    49    9.2   19.4   9.08  .0746    116    1    100.0    5 
24/04/17   6:50    9.9    9.9    9.9    93    8.8   0.0   ---   0.00   0.0   ---    9.9   10.1   10.1  1017.6  0.00  0.00   0.029   0.000   20.2    49    9.2   19.4   9.08  .0746    117    1    100.0    5 
24/04/17   6:55    9.9    9.9    9.9    93    8.8   0.0   ---   0.00   0.0   ---    9.9   10.1   10.1  1017.5  0.00  0.00   0.029   0.000   20.2    49    9.2   19.4   9.08  .0746    117    1    100.0    5 
24/04/17   7:00    9.9    9.9    9.9    93    8.8   0.0   ---   0.00   0.0   ---    9.9   10.1   10.1  1017.5  0.00  0.00   0.029   0.000   20.2    49    9.2   19.4   9.08  .0746    116    1    100.0    5 
24/04/17   7:05    9.8    9.9    9.8    93    8.8   0.0   ---   0.00   0.0   ---    9.8   10.1   10.1  1017.6  0.00  0.00   0.030   0.000   20.2    49    9.1   19.4   9.08  .0746    117    1    100.0    5 
24/04/17   7:10    9.8    9.8    9.8    93    8.8   0.0   ---   0.00   0.0   ---    9.8   10.1   10.1  1017.6  0.00  0.00   0.030   0.000   20.2    49    9.1   19.4   9.08  .0746    117    1    100.0    5 
24/04/17   7:15    9.8    9.8    9.8    93    8.7   0.0   ---   0.00   0.0   ---    9.8   10.0   10.0  1017.5  0.00  0.00   0.030   0.000   20.2    49    9.1   19.4   9.08  .0746    115    1    100.0    5 
24/04/17   7:20    9.7    9.7    9.7    93    8.6   0.0   ---   0.00   0.0   ---    9.7    9.9    9.9  1017.5  0.00  0.00   0.030   0.000   20.2    49    9.1   19.4   9.08  .0746    117    1    100.0    5 
24/04/17   7:25    9.6    9.7    9.6    93    8.5   0.0   ---   0.00   0.0   ---    9.6    9.8    9.8  1017.5  0.00  0.00   0.030   0.000   20.2    49    9.1   19.4   9.08  .0746    117    1    100.0    5 
24/04/17   7:30    9.5    9.6    9.5    92    8.3   1.0    NW   0.08   5.0    NW    9.5    9.7    9.7  1017.5  0.00  0.00   0.031   0.000   20.2    49    9.2   19.4   9.08  .0746    117    1    100.0    5 
24/04/17   7:35    9.3    9.5    9.3    92    8.1   0.0   WNW   0.00   5.0   WNW    9.3    9.6    9.6  1017.5  0.00  0.00   0.031   0.000   20.2    49    9.2   19.4   9.08  .0746    117    1    100.0    5 
24/04/17   7:40    9.3    9.3    9.3    92    8.1   0.0    NW   0.00   4.0    NW    9.3    9.6    9.6  1017.5  0.00  0.00   0.031   0.000   20.2    49    9.2   19.4   9.08  .0746    117    1    100.0    5 
24/04/17   7:45    9.3    9.4    9.3    92    8.1   2.0    NW   0.17   7.0    NW    9.3    9.6    9.6  1017.5  0.00  0.00   0.031   0.000   20.2    49    9.2   19.4   9.08  .0746    117    1    100.0    5 
24/04/17   7:50    9.5    9.5    9.3    92    8.3   0.0   ---   0.00   0.0   ---    9.5    9.7    9.7  1017.4  0.00  0.00   0.031   0.000   20.2    49    9.2   19.4   9.08  .0746    117    1    100.0    5 
24/04/17   7:55    9.6    9.6    9.5    91    8.2   0.0    NW   0.00   4.0   WNW    9.6    9.8    9.8  1017.3  0.00  0.00   0.030   0.000   20.2    49    9.2   19.4   9.08  .0746    115    1    100.0    5 
24/04/17   8:00    9.8    9.8    9.6    90    8.2   1.0    NW   0.08   5.0   NNW    9.8    9.9    9.9  1017.4  0.00  0.00   0.030   0.000   20.2    49    9.2   19.4   9.08  .0746    117    1    100.0    5 
24/04/17   8:05    9.9    9.9    9.8    89    8.2   1.0   WNW   0.08   7.0   WNW    9.9   10.1   10.1  1017.4  0.00  0.00   0.029   0.000   20.2    49    9.2   19.4   9.08  .0746    117    1    100.0    5 
24/04/17   8:10   10.1   10.1    9.9    88    8.2   1.0   WNW   0.08   6.0     W   10.1   10.2   10.2  1017.3  0.00  0.00   0.029   0.000   20.2    49    9.2   19.4   9.08  .0746    116    1    100.0    5 
24/04/17   8:15   10.3   10.3   10.1    88    8.4   1.0     W   0.08   7.0     W   10.3   10.4   10.4  1017.2  0.00  0.00   0.028   0.000   20.3    49    9.2   19.5   9.08  .0746    117    1    100.0    5 
24/04/17   8:20   10.7   10.7   10.3    87    8.6   1.0     W   0.08   5.0     W   10.7   10.7   10.7  1017.2  0.00  0.00   0.027   0.000   20.3    49    9.2   19.5   9.08  .0746    117    1    100.0    5 
24/04/17   8:25   10.8   10.8   10.7    85    8.4   2.0   WSW   0.17   6.0   WSW   10.8   10.8   10.8  1017.1  0.00  0.00   0.026   0.000   20.3    49    9.2   19.5   9.08  .0746    117    1    100.0    5 
24/04/17   8:30   10.8   10.9   10.8    85    8.4   0.0   ---   0.00   0.0   ---   10.8   10.8   10.8  1017.0  0.00  0.00   0.026   0.000   20.3    49    9.2   19.5   9.08  .0746    117    1    100.0    5 
24/04/17   8:35   10.9   10.9   10.8    84    8.3   0.0   ---   0.00   0.0   ---   10.9   10.9   10.9  1017.0  0.00  0.00   0.026   0.000   20.3    49    9.3   19.5   9.08  .0745    116    1    100.0    5 
24/04/17   8:40   10.9   10.9   10.9    84    8.3   1.0   WSW   0.08   6.0   WSW   10.9   10.9   10.9  1017.0  0.00  0.00   0.026   0.000   20.3    49    9.3   19.5   9.08  .0745    116    1    100.0    5 
24/04/17   8:45   11.0   11.0   10.9    84    8.4   4.0   WSW   0.33   6.0   WSW   10.6   11.0   10.6  1017.0  0.00  0.00   0.025   0.000   20.4    49    9.3   19.6   9.08  .0745    116    1    100.0    5 
24/04/17   8:50   11.1   11.1   11.0    84    8.5   4.0   WSW   0.33   5.0   WSW   10.6   11.1   10.6  1017.0  0.00  0.00   0.025   0.000   20.4    49    9.3   19.6   9.08  .0745    117    1    100.0    5 
24/04/17   8:55   11.1   11.1   11.1    83    8.3   0.0   WSW   0.00   4.0   WSW   11.1   11.0   11.0  1017.0  0.00  0.00   0.025   0.000   20.4    49    9.4   19.6   9.07  .0745    117    1    100.0    5 
24/04/17   9:00   11.2   11.2   11.1    83    8.4   0.0   ---   0.00   0.0   ---   11.2   11.1   11.1  1017.0  0.00  0.00   0.025   0.000   20.5    49    9.4   19.7   9.07  .0745    116    1    100.0    5 
24/04/17   9:05   11.1   11.2   11.1    83    8.3   2.0   WSW   0.17   7.0   WSW   11.1   11.1   11.1  1017.0  0.00  0.00   0.025   0.000   20.6    49    9.5   19.7   9.07  .0745    113    1     99.1    5 
24/04/17   9:10   11.2   11.2   11.2    83    8.4   6.0   WSW   0.50   9.0   WSW   10.1   11.1   10.0  1016.9  0.00  0.00   0.025   0.000   20.6    49    9.5   19.7   9.07  .0745    116    1    100.0    5 
24/04/17   9:15   11.1   11.2   11.1    83    8.3   7.0   WSW   0.58   8.0   WSW    9.8   11.1    9.7  1017.0  0.00  0.00   0.025   0.000   20.6    50    9.8   19.8   9.27  .0744    117    1    100.0    5 
24/04/17   9:20   11.2   11.2   11.1    83    8.4   6.0   WSW   0.50   8.0   WSW   10.1   11.2   10.1  1016.9  0.00  0.00   0.025   0.000   20.6    50    9.8   19.8   9.27  .0744    117    1    100.0    5 
24/04/17   9:25   11.5   11.5   11.2    83    8.7   6.0    SW   0.50   8.0    SW   10.4   11.4   10.3  1016.8  0.00  0.00   0.024   0.000   20.7    50    9.9   19.8   9.27  .0744    117    1    100.0    5 
24/04/17   9:30   11.5   11.6   11.5    83    8.7   5.0    SW   0.42   8.0    SW   10.8   11.4   10.7  1016.8  0.00  0.00   0.024   0.000   20.7    50    9.9   19.8   9.27  .0744    117    1    100.0    5 
24/04/17   9:35   11.6   11.6   11.6    83    8.8   5.0    SW   0.42   7.0    SW   10.9   11.5   10.8  1016.8  0.00  0.00   0.023   0.000   20.7    50    9.9   19.8   9.27  .0744    117    1    100.0    5 
24/04/17   9:40   11.6   11.6   11.5    83    8.8   5.0    SW   0.42   7.0    SW   10.8   11.4   10.7  1016.7  0.00  0.00   0.024   0.000   20.7    50    9.9   19.9   9.26  .0744    117    1    100.0    5 
24/04/17   9:45   11.6   11.6   11.6    83    8.8   6.0    SW   0.50   8.0    SW   10.6   11.5   10.5  1016.7  0.00  0.00   0.023   0.000   20.7    50    9.9   19.9   9.26  .0744    118    1    100.0    5 
24/04/17   9:50   11.6   11.6   11.6    84    9.0   5.0    SW   0.42   7.0    SW   10.9   11.6   10.8  1016.7  0.00  0.00   0.023   0.000   20.8    50   10.0   19.9   9.26  .0744    116    1    100.0    5 
24/04/17   9:55   11.7   11.7   11.6    84    9.1   5.0    SW   0.42   7.0    SW   11.0   11.7   10.9  1016.6  0.00  0.00   0.023   0.000   20.8    50   10.0   19.9   9.26  .0743    117    1    100.0    5 
24/04/17  10:00   11.9   11.9   11.7    83    9.1   6.0    SW   0.50   9.0    SW   10.9   11.8   10.8  1016.6  0.00  0.00   0.022   0.000   20.8    50   10.0   19.9   9.26  .0743    116    1    100.0    5 
24/04/17  10:05   11.8   11.9   11.7    83    9.0   7.0    SW   0.58   8.0    SW   10.7   11.7   10.6  1016.6  0.00  0.00   0.023   0.000   20.8    50   10.0   19.9   9.26  .0743    114    1    100.0    5 
24/04/17  10:10   11.7   11.8   11.7    83    8.9   6.0    SW   0.50   9.0    SW   10.7   11.6   10.6  1016.6  0.00  0.00   0.023   0.000   20.9    50   10.1   20.0   9.26  .0743    117    1    100.0    5 
24/04/17  10:15   11.7   11.8   11.7    83    8.9   6.0    SW   0.50   8.0    SW   10.7   11.6   10.6  1016.5  0.00  0.00   0.023   0.000   20.9    50   10.1   20.0   9.26  .0743    116    1    100.0    5 
24/04/17  10:20   11.7   11.7   11.6    83    8.9   7.0    SW   0.58   9.0    SW   10.4   11.6   10.3  1016.5  0.00  0.00   0.023   0.000   20.9    50   10.1   20.1   9.26  .0743    116    1    100.0    5 
24/04/17  10:25   11.7   11.7   11.7    84    9.1   6.0    SW   0.50   9.0    SW   10.7   11.6   10.6  1016.5  0.00  0.00   0.023   0.000   21.0    50   10.2   20.1   9.25  .0743    117    1    100.0    5 
24/04/17  10:30   11.7   11.7   11.7    84    9.1   7.0    SW   0.58   9.0    SW   10.5   11.7   10.4  1016.4  0.00  0.00   0.023   0.000   21.0    50   10.2   20.1   9.25  .0743    115    1    100.0    5 
24/04/17  10:35   12.1   12.1   11.8    83    9.3   6.0    SW   0.50   8.0    SW   11.1   11.9   11.0  1016.4  0.00  0.00   0.022   0.000   21.1    50   10.2   20.1   9.25  .0743    116    1    100.0    5 
24/04/17  10:40   12.3   12.3   12.0    84    9.7   6.0    SW   0.50   9.0    SW   11.4   12.2   11.3  1016.3  0.00  0.00   0.021   0.000   21.1    50   10.2   20.1   9.25  .0742    117    1    100.0    5 
24/04/17  10:45   12.2   12.3   12.2    83    9.4   7.0    SW   0.58   9.0    SW   11.1   12.1   11.0  1016.3  0.00  0.00   0.021   0.000   21.1    50   10.3   20.2   9.25  .0742    117    1    100.0    5 
24/04/17  10:50   12.6   12.6   12.2    83    9.7   7.0    SW   0.58  10.0    SW   11.5   12.4   11.4  1016.3  0.00  0.00   0.020   0.000   21.2    50   10.3   20.2   9.25  .0742    118    1    100.0    5 
24/04/17  10:55   12.4   12.6   12.4    82    9.5   7.0    SW   0.58  10.0    SW   11.4   12.3   11.3  1016.3  0.00  0.00   0.020   0.000   21.2    50   10.4   20.3   9.25  .0742    116    1    100.0    5 
24/04/17  11:00   12.5   12.6   12.4    82    9.5   8.0    SW   0.67  11.0    SW   11.1   12.4   10.9  1016.2  0.00  0.00   0.020   0.000   21.3    50   10.4   20.4   9.25  .0742    116    1    100.0    5 
24/04/17  11:05   12.4   12.5   12.4    83    9.6   9.0    SW   0.75  12.0    SW   10.6   12.3   10.5  1016.1  0.00  0.00   0.020   0.000   21.3    50   10.4   20.4   9.25  .0742    117    1    100.0    5 
24/04/17  11:10   12.3   12.4   12.3    84    9.7   9.0    SW   0.75  12.0    SW   10.4   12.2   10.3  1016.1  0.00  0.00   0.021   0.000   21.3    50   10.5   20.4   9.25  .0741    117    1    100.0    5 
24/04/17  11:15   12.3   12.3   12.2    85    9.9   8.0    SW   0.67  11.0    SW   10.8   12.3   10.8  1016.0  0.00  0.00   0.021   0.000   21.4    50   10.5   20.5   9.25  .0741    117    1    100.0    5 
24/04/17  11:20   12.2   12.3   12.2    85    9.7   9.0    SW   0.75  11.0    SW   10.3   12.1   10.2  1015.9  0.00  0.00   0.021   0.000   21.4    50   10.5   20.5   9.25  .0741    116    1    100.0    5 
24/04/17  11:25   12.1   12.2   12.1    85    9.6   9.0    SW   0.75  11.0    SW   10.1   12.0   10.1  1015.9  0.00  0.00   0.022   0.000   21.4    50   10.5   20.5   9.25  .0741    117    1    100.0    5 
24/04/17  11:30   11.9   12.1   11.9    85    9.5   8.0    SW   0.67  10.0    SW   10.4   11.9   10.3  1015.9  0.00  0.00   0.022   0.000   21.4    50   10.6   20.6   9.25  .0741    117    1    100.0    5 
24/04/17  11:35   11.8   11.9   11.8    84    9.2   8.0    SW   0.67  11.0    SW   10.3   11.8   10.2  1015.7  0.00  0.00   0.023   0.000   21.4    50   10.6   20.6   9.25  .0741    116    1    100.0    5 
24/04/17  11:40   11.8   11.9   11.8    84    9.2   8.0    SW   0.67  10.0    SW   10.3   11.8   10.2  1015.7  0.00  0.00   0.023   0.000   21.5    50   10.6   20.7   9.25  .0741    116    1    100.0    5 
24/04/17  11:45   11.8   11.9   11.8    85    9.3   8.0    SW   0.67  11.0    SW   10.2   11.7   10.1  1015.6  0.00  0.00   0.023   0.000   21.5    50   10.6   20.7   9.25  .0741    117    1    100.0    5 
24/04/17  11:50   11.7   11.8   11.7    86    9.4   8.0    SW   0.67  12.0    SW   10.1   11.6   10.0  1015.6  0.00  0.00   0.023   0.000   21.5    50   10.6   20.7   9.25  .0741    116    1    100.0    5 
24/04/17  11:55   11.8   11.8   11.7    87    9.7   6.0   SSW   0.50   8.0   SSW   10.9   11.8   10.9  1015.5  0.00  0.00   0.023   0.000   21.5    50   10.6   20.7   9.25  .0740    118    1    100.0    5 
24/04/17  12:00   12.0   12.0   11.8    87    9.9   7.0   SSW   0.58  10.0    SW   10.8   12.0   10.8  1015.4  0.00  0.00   0.022   0.000   21.6    50   10.7   20.7   9.25  .0740    116    1    100.0    5 
24/04/17  12:05   12.2   12.2   12.0    85    9.7   8.0   SSW   0.67  10.0    SW   10.7   12.1   10.6  1015.3  0.00  0.00   0.021   0.000   21.6    50   10.7   20.7   9.25  .0740    117    1    100.0    5 
24/04/17  12:10   12.4   12.4   12.2    84    9.8   7.0    SW   0.58  10.0    SW   11.3   12.3   11.3  1015.3  0.00  0.00   0.021   0.000   21.6    50   10.7   20.8   9.25  .0740    117    1    100.0    5 
24/04/17  12:15   12.5   12.6   12.4    84    9.9   8.0    SW   0.67  13.0    SW   11.1   12.4   11.0  1015.2  0.00  0.00   0.020   0.000   21.6    50   10.7   20.8   9.25  .0740    117    1    100.0    5 
24/04/17  12:20   12.3   12.5   12.3    84    9.7  11.0    SW   0.92  14.0    SW    9.7   12.2    9.7  1015.2  0.00  0.00   0.021   0.000   21.6    50   10.7   20.8   9.25  .0740    116    1    100.0    5 
24/04/17  12:25   12.3   12.3   12.3    84    9.7  11.0    SW   0.92  14.0    SW    9.7   12.2    9.7  1015.1  0.00  0.00   0.021   0.000   21.7    50   10.8   20.9   9.25  .0740    117    1    100.0    5 
24/04/17  12:30   12.5   12.5   12.3    86   10.2  10.0    SW   0.83  14.0    SW   10.3   12.4   10.3  1015.0  0.00  0.00   0.020   0.000   21.7    50   10.8   20.9   9.25  .0740    115    1    100.0    5 
24/04/17  12:35   12.7   12.7   12.5    85   10.2  11.0    SW   0.92  15.0   WSW   10.2   12.6   10.2  1015.0  0.00  0.00   0.020   0.000   21.7    50   10.8   21.0   9.25  .0739    116    1    100.0    5 
24/04/17  12:40   12.4   12.7   12.4    83    9.6  12.0    SW   1.00  15.0    SW    9.6   12.3    9.5  1014.9  0.00  0.00   0.020   0.000   21.7    50   10.8   21.0   9.25  .0739    117    1    100.0    5 
24/04/17  12:45   12.3   12.4   12.3    83    9.5  11.0    SW   0.92  14.0    SW    9.7   12.2    9.6  1014.8  0.00  0.00   0.021   0.000   21.7    50   10.8   21.0   9.25  .0739    116    1    100.0    5 
24/04/17  12:50   12.3   12.3   12.2    83    9.5  13.0    SW   1.08  16.0    SW    9.2   12.2    9.1  1014.8  0.00  0.00   0.021   0.000   21.7    50   10.8   21.0   9.25  .0739    115    1    100.0    5 
24/04/17  12:55   12.3   12.3   12.2    83    9.5  12.0    SW   1.00  15.0    SW    9.4   12.2    9.3  1014.7  0.00  0.00   0.021   0.000   21.8    50   10.9   21.1   9.25  .0739    118    1    100.0    5 
24/04/17  13:00   12.2   12.3   12.2    82    9.2  13.0    SW   1.08  16.0    SW    9.1   12.1    8.9  1014.7  0.00  0.00   0.021   0.000   21.8    50   10.9   21.1   9.25  .0739    117    1    100.0    5 
24/04/17  13:05   12.2   12.2   12.2    82    9.2  13.0    SW   1.08  17.0   WSW    9.1   12.1    8.9  1014.7  0.00  0.00   0.021   0.000   21.8    50   10.9   21.1   9.25  .0739    117    1    100.0    5 
24/04/17  13:10   12.3   12.3   12.2    82    9.3  12.0    SW   1.00  15.0    SW    9.4   12.2    9.3  1014.6  0.00  0.00   0.021   0.000   21.8    50   10.9   21.1   9.25  .0739    117    1    100.0    5 
24/04/17  13:15   12.4   12.4   12.3    81    9.2  12.0    SW   1.00  16.0    SW    9.6   12.2    9.4  1014.5  0.00  0.00   0.021   0.000   21.8    50   10.9   21.1   9.25  .0739    116    1    100.0    5 
24/04/17  13:20   12.8   12.8   12.4    81    9.6  13.0    SW   1.08  17.0    SW    9.8   12.6    9.6  1014.4  0.00  0.00   0.019   0.000   21.8    50   10.9   21.2   9.25  .0739    117    1    100.0    5 
24/04/17  13:25   12.7   12.8   12.7    81    9.5  13.0    SW   1.08  15.0    SW    9.7   12.5    9.5  1014.4  0.00  0.00   0.020   0.000   21.8    50   10.9   21.2   9.25  .0739    116    1    100.0    5 
24/04/17  13:30   12.3   12.7   12.3    81    9.2  13.0    SW   1.08  17.0    SW    9.2   12.2    9.1  1014.3  0.00  0.00   0.021   0.000   21.8    50   10.9   21.2   9.25  .0739    117    1    100.0    5 
24/04/17  13:35   12.3   12.3   12.3    82    9.3  13.0    SW   1.08  16.0    SW    9.2   12.2    9.1  1014.3  0.00  0.00   0.021   0.000   21.9    50   11.0   21.2   9.25  .0738    116    1    100.0    5 
24/04/17  13:40   12.2   12.3   12.2    83    9.4  13.0    SW   1.08  17.0    SW    9.1   12.1    8.9  1014.2  0.00  0.00   0.021   0.000   21.9    50   11.0   21.2   9.25  .0738    117    1    100.0    5 
24/04/17  13:45   12.1   12.2   12.1    83    9.3  13.0    SW   1.08  15.0    SW    8.9   11.9    8.8  1014.2  0.00  0.00   0.022   0.000   21.9    50   11.0   21.2   9.25  .0738    117    1    100.0    5 
24/04/17  13:50   12.1   12.1   12.1    84    9.4  11.0    SW   0.92  14.0    SW    9.4   12.0    9.4  1014.1  0.00  0.00   0.022   0.000   21.9    50   11.0   21.2   9.25  .0738    116    1    100.0    5 
24/04/17  13:55   12.0   12.1   12.0    84    9.4  12.0    SW   1.00  16.0    SW    9.1   11.9    9.1  1014.1  0.00  0.00   0.022   0.000   21.9    50   11.0   21.2   9.25  .0738    117    1    100.0    5 
24/04/17  14:00   12.0   12.1   12.0    84    9.4  12.0    SW   1.00  15.0    SW    9.1   11.9    9.1  1014.0  0.00  0.00   0.022   0.000   21.9    50   11.0   21.2   9.25  .0738    118    1    100.0    5 
24/04/17  14:05   12.1   12.1   12.0    83    9.3  13.0    SW   1.08  17.0    SW    8.9   11.9    8.8  1013.9  0.00  0.00   0.022   0.000   21.9    50   11.0   21.2   9.25  .0738    117    1    100.0    5 
24/04/17  14:10   12.1   12.2   12.1    84    9.4  13.0    SW   1.08  18.0    SW    8.9   12.0    8.9  1013.9  0.00  0.00   0.022   0.000   21.9    50   11.0   21.2   9.25  .0738    117    1    100.0    5 
24/04/17  14:15   11.9   12.1   11.9    86    9.6  13.0    SW   1.08  17.0    SW    8.7   11.8    8.7  1013.8  0.00  0.00   0.022   0.000   21.9    50   11.0   21.2   9.25  .0738    117    1    100.0    5 
24/04/17  14:20   11.8   11.9   11.8    87    9.7  12.0    SW   1.00  15.0    SW    8.9   11.8    8.9  1013.7  0.00  0.00   0.023   0.000   21.8    50   10.9   21.2   9.25  .0738    115    1    100.0    5 
24/04/17  14:25   11.8   11.8   11.8    88    9.9  12.0    SW   1.00  16.0    SW    8.9   11.8    8.9  1013.7  0.00  0.00   0.023   0.000   21.8    50   10.9   21.2   9.25  .0738    116    1    100.0    5 
24/04/17  14:30   11.8   11.8   11.8    88    9.9  14.0    SW   1.17  17.0    SW    8.4   11.8    8.4  1013.7  0.00  0.00   0.023   0.000   21.8    50   10.9   21.2   9.25  .0738    117    1    100.0    5 
24/04/17  14:35   11.8   11.8   11.8    88    9.9  14.0    SW   1.17  18.0   WSW    8.4   11.8    8.4  1013.6  0.00  0.00   0.023   0.000   21.8    50   10.9   21.2   9.25  .0738    117    1    100.0    5 
24/04/17  14:40   11.9   11.9   11.8    88   10.0  14.0    SW   1.17  19.0    SW    8.6   11.9    8.6  1013.6  0.00  0.00   0.022   0.000   21.8    49   10.6   21.1   9.05  .0738    115    1    100.0    5 
24/04/17  14:45   12.0   12.1   11.9    86    9.7  14.0    SW   1.17  18.0   WSW    8.7   11.9    8.6  1013.5  0.00  0.00   0.022   0.000   21.8    49   10.6   21.1   9.05  .0738    117    1    100.0    5 
24/04/17  14:50   12.1   12.1   12.1    87   10.0  14.0    SW   1.17  17.0    SW    8.7   12.1    8.7  1013.4  0.00  0.00   0.022   0.000   21.8    49   10.6   21.1   9.05  .0738    117    1    100.0    5 
24/04/17  14:55   12.1   12.1   12.0    87   10.0  13.0    SW   1.08  17.0    SW    8.9   12.1    8.9  1013.4  0.00  0.00   0.022   0.000   21.8    49   10.6   21.1   9.05  .0738    117    1    100.0    5 
24/04/17  15:00   12.0   12.1   11.9    88   10.1  12.0    SW   1.00  16.0    SW    9.1   12.0    9.1  1013.3  0.00  0.00   0.022   0.000   21.8    49   10.6   21.1   9.05  .0738    117    1    100.0    5 
24/04/17  15:05   12.1   12.1   12.0    88   10.1  12.0    SW   1.00  17.0    SW    9.2   12.1    9.2  1013.2  0.00  0.00   0.022   0.000   21.8    49   10.6   21.0   9.05  .0738    118    1    100.0    5 
24/04/17  15:10   12.1   12.1   12.1    87   10.0  14.0    SW   1.17  18.0   WSW    8.7   12.1    8.7  1013.1  0.00  0.00   0.022   0.000   21.8    49   10.6   21.1   9.05  .0738    117    1    100.0    5 
24/04/17  15:15   12.1   12.1   12.1    88   10.2  13.0    SW   1.08  17.0    SW    9.0   12.1    9.0  1013.0  0.00  0.00   0.022   0.000   21.8    49   10.6   21.0   9.05  .0738    116    1    100.0    5 
24/04/17  15:20   12.1   12.1   12.0    88   10.1  13.0    SW   1.08  18.0    SW    8.9   12.1    8.9  1013.0  0.00  0.00   0.022   0.000   21.8    50   10.9   21.2   9.25  .0738    117    1    100.0    5 
24/04/17  15:25   12.1   12.1   12.1    87   10.0  13.0    SW   1.08  17.0    SW    8.9   12.1    8.9  1013.0  0.00  0.00   0.022   0.000   21.8    50   10.9   21.2   9.25  .0738    117    1    100.0    5 
24/04/17  15:30   12.1   12.1   12.0    87   10.0  14.0    SW   1.17  17.0    SW    8.7   12.1    8.7  1012.9  0.00  0.00   0.022   0.000   21.8    50   10.9   21.2   9.25  .0738    117    1    100.0    5 
24/04/17  15:35   12.0   12.1   12.0    87    9.9  13.0    SW   1.08  17.0    SW    8.9   12.0    8.9  1012.7  0.00  0.00   0.022   0.000   21.8    49   10.6   21.1   9.05  .0738    116    1    100.0    5 
24/04/17  15:40   11.9   12.0   11.9    88   10.0  13.0   WSW   1.08  19.0   WSW    8.8   11.9    8.8  1012.8  0.00  0.00   0.022   0.000   21.8    49   10.6   21.1   9.05  .0738    115    1    100.0    5 
24/04/17  15:45   11.8   11.9   11.8    87    9.7  14.0   WSW   1.17  18.0    SW    8.5   11.8    8.5  1012.7  0.00  0.00   0.023   0.000   21.8    49   10.6   21.1   9.05  .0738    117    1    100.0    5 
24/04/17  15:50   11.8   11.8   11.8    87    9.7  14.0   WSW   1.17  18.0   WSW    8.4   11.8    8.4  1012.6  0.00  0.00   0.023   0.000   21.8    49   10.6   21.1   9.05  .0738    117    1    100.0    5 
24/04/17  15:55   11.8   11.8   11.8    87    9.7  14.0   WSW   1.17  18.0    SW    8.5   11.8    8.5  1012.6  0.00  0.00   0.023   0.000   21.8    49   10.6   21.0   9.05  .0738    117    1    100.0    5 
24/04/17  16:00   11.9   11.9   11.8    87    9.8  15.0   WSW   1.25  17.0    SW    8.4   11.9    8.4  1012.6  0.00  0.00   0.022   0.000   21.8    49   10.6   21.0   9.05  .0738    117    1    100.0    5 
24/04/17  16:05   12.0   12.1   11.9    87    9.9  13.0    SW   1.08  16.0    SW    8.9   12.0    8.9  1012.6  0.00  0.00   0.022   0.000   21.8    49   10.6   21.0   9.05  .0738    117    1    100.0    5 
24/04/17  16:10   12.1   12.1   12.0    86    9.8  14.0   WSW   1.17  20.0   WSW    8.7   12.0    8.7  1012.5  0.00  0.00   0.022   0.000   21.8    49   10.6   21.1   9.05  .0737    116    1    100.0    5 
24/04/17  16:15   12.2   12.2   12.1    85    9.7  15.0   WSW   1.25  19.0   WSW    8.7   12.1    8.6  1012.5  0.00  0.00   0.021   0.000   21.8    49   10.6   21.0   9.05  .0738    117    1    100.0    5 
24/04/17  16:20   12.3   12.3   12.2    86   10.0  14.0   WSW   1.17  19.0   WSW    9.0   12.2    8.9  1012.4  0.00  0.00   0.021   0.000   21.8    49   10.6   21.0   9.05  .0737    116    1    100.0    5 
24/04/17  16:25   12.3   12.3   12.3    85    9.9  15.0   WSW   1.25  19.0   WSW    8.8   12.3    8.8  1012.3  0.00  0.00   0.021   0.000   21.8    49   10.6   21.0   9.05  .0737    117    1    100.0    5 
24/04/17  16:30   12.3   12.4   12.3    84    9.7  14.0   WSW   1.17  20.0   WSW    9.0   12.2    8.9  1012.3  0.00  0.00   0.021   0.000   21.8    49   10.6   21.1   9.05  .0737    116    1    100.0    5 
24/04/17  16:35   12.4   12.4   12.3    82    9.4  13.0   WSW   1.08  21.0   WSW    9.3   12.3    9.2  1012.2  0.00  0.00   0.021   0.000   21.8    49   10.6   21.0   9.05  .0737    116    1    100.0    5 
24/04/17  16:40   12.4   12.4   12.4    83    9.6  14.0   WSW   1.17  21.0   WSW    9.2   12.3    9.1  1012.1  0.00  0.00   0.020   0.000   21.8    49   10.6   21.0   9.05  .0737    117    1    100.0    5 
24/04/17  16:45   12.2   12.4   12.2    82    9.2  16.0   WSW   1.33  21.0   WSW    8.6   12.1    8.4  1012.1  0.00  0.00   0.021   0.000   21.8    49   10.6   21.0   9.05  .0737    116    1    100.0    5 
24/04/17  16:50   12.2   12.2   12.2    84    9.6  15.0   WSW   1.25  20.0   WSW    8.7   12.2    8.7  1012.1  0.00  0.00   0.021   0.000   21.8    49   10.6   21.0   9.05  .0737    117    1    100.0    5 
24/04/17  16:55   12.2   12.2   12.1    84    9.5  14.0   WSW   1.17  19.0   WSW    8.9   12.1    8.8  1012.0  0.00  0.00   0.021   0.000   21.8    49   10.6   21.0   9.05  .0737    117    1    100.0    5 
24/04/17  17:00   12.1   12.2   12.1    85    9.7  14.0   WSW   1.17  20.0   WSW    8.8   12.1    8.8  1012.0  0.00  0.00   0.022   0.000   21.8    49   10.6   21.0   9.05  .0737    117    1    100.0    5 
24/04/17  17:05   12.1   12.1   12.1    85    9.6  15.0   WSW   1.25  18.0   WSW    8.6   12.0    8.5  1011.9  0.00  0.00   0.022   0.000   21.7    49   10.5   20.9   9.05  .0737    117    1    100.0    5 
24/04/17  17:10   12.2   12.2   12.1    86    9.9  13.0   WSW   1.08  16.0   WSW    9.1   12.1    9.0  1011.8  0.00  0.00   0.021   0.000   21.7    49   10.5   20.9   9.05  .0737    117    1    100.0    5 
24/04/17  17:15   12.2   12.2   12.2    85    9.8  11.0   WSW   0.92  17.0   WSW    9.7   12.2    9.6  1011.8  0.00  0.00   0.021   0.000   21.7    49   10.5   20.9   9.05  .0737    117    1    100.0    5 
24/04/17  17:20   12.2   12.3   12.2    84    9.6  13.0   WSW   1.08  18.0   WSW    9.1   12.2    9.1  1011.8  0.00  0.00   0.021   0.000   21.7    49   10.5   20.9   9.05  .0737    117    1    100.0    5 
24/04/17  17:25   12.1   12.2   12.1    85    9.7  14.0   WSW   1.17  18.0   WSW    8.8   12.1    8.8  1011.8  0.00  0.00   0.022   0.000   21.7    49   10.5   20.9   9.05  .0737    117    1    100.0    5 
24/04/17  17:30   12.0   12.1   12.0    86    9.7  11.0   WSW   0.92  16.0   WSW    9.4   11.9    9.3  1011.7  0.00  0.00   0.022   0.000   21.8    49   10.6   21.0   9.05  .0737    117    1    100.0    5 
24/04/17  17:35   11.9   12.0   11.9    86    9.6  12.0   WSW   1.00  19.0   WSW    9.0   11.8    8.9  1011.6  0.00  0.00   0.022   0.000   21.8    49   10.6   21.0   9.05  .0737    116    1    100.0    5 
24/04/17  17:40   11.9   11.9   11.8    87    9.8  12.0   WSW   1.00  16.0   WSW    9.0   11.9    9.0  1011.6  0.00  0.00   0.022   0.000   21.8    49   10.6   21.0   9.05  .0737    115    1    100.0    5 
24/04/17  17:45   11.9   11.9   11.8    87    9.8  13.0   WSW   1.08  17.0   WSW    8.8   11.9    8.8  1011.5  0.00  0.00   0.022   0.000   21.8    49   10.6   21.0   9.05  .0737    117    1    100.0    5 
24/04/17  17:50   12.0   12.0   11.9    87    9.9  14.0   WSW   1.17  18.0   WSW    8.7   12.0    8.7  1011.5  0.00  0.00   0.022   0.000   21.8    50   10.9   21.1   9.25  .0737    117    1    100.0    5 
24/04/17  17:55   12.1   12.1   12.0    87   10.0  13.0   WSW   1.08  18.0   WSW    8.9   12.1    8.9  1011.4  0.00  0.00   0.022   0.000   21.8    50   10.9   21.1   9.25  .0737    116    1    100.0    5 
24/04/17  18:00   12.1   12.1   12.0    88   10.1  11.0    SW   0.92  14.0    SW    9.4   12.1    9.4  1011.4  0.00  0.00   0.022   0.000   21.8    50   10.9   21.1   9.25  .0737    116    1    100.0    5 
24/04/17  18:05   12.2   12.2   12.1    87   10.1  10.0   WSW   0.83  16.0   WSW    9.9   12.2    9.9  1011.3  0.00  0.00   0.021   0.000   21.8    50   10.9   21.2   9.25  .0736    116    1    100.0    5 
24/04/17  18:10   12.3   12.3   12.2    87   10.2  11.0   WSW   0.92  17.0   WSW    9.7   12.3    9.7  1011.3  0.00  0.00   0.021   0.000   21.8    50   10.9   21.2   9.25  .0736    117    1    100.0    5 
24/04/17  18:15   12.3   12.3   12.2    87   10.2  12.0   WSW   1.00  16.0   WSW    9.4   12.3    9.4  1011.2  0.00  0.00   0.021   0.000   21.9    50   11.0   21.2   9.25  .0736    118    1    100.0    5 
24/04/17  18:20   12.3   12.3   12.3    86   10.0  12.0   WSW   1.00  17.0   WSW    9.4   12.2    9.4  1011.2  0.00  0.00   0.021   0.000   21.9    50   11.0   21.2   9.25  .0736    116    1    100.0    5 
24/04/17  18:25   12.4   12.4   12.3    87   10.3   7.0   WSW   0.58  14.0   WSW   11.4   12.4   11.4  1011.1  0.00  0.00   0.020   0.000   21.9    50   11.0   21.2   9.25  .0736    117    1    100.0    5 
24/04/17  18:30   12.4   12.4   12.4    86   10.2   8.0   WSW   0.67  15.0   WSW   11.0   12.4   10.9  1011.0  0.00  0.00   0.020   0.000   21.9    50   11.0   21.2   9.25  .0736    117    1    100.0    5 
24/04/17  18:35   12.6   12.6   12.4    84    9.9   6.0   WSW   0.50  11.0   WSW   11.7   12.5   11.7  1011.0  0.00  0.00   0.020   0.000   21.9    50   11.0   21.2   9.25  .0736    115    1    100.0    5 
24/04/17  18:40   12.7   12.7   12.6    83    9.9   1.0     W   0.08   7.0   WSW   12.7   12.6   12.6  1011.0  0.00  0.00   0.020   0.000   21.9    50   11.0   21.2   9.25  .0736    116    1    100.0    5 
24/04/17  18:45   12.8   12.8   12.7    81    9.6   2.0     W   0.17   7.0     W   12.8   12.6   12.6  1010.9  0.00  0.00   0.019   0.000   21.9    50   11.0   21.2   9.25  .0736    117    1    100.0    5 
24/04/17  18:50   12.9   12.9   12.8    78    9.2   1.0   WNW   0.08   7.0     W   12.9   12.7   12.7  1010.9  0.00  0.00   0.019   0.000   21.9    50   11.0   21.2   9.25  .0736    117    1    100.0    5 
24/04/17  18:55   13.0   13.0   12.9    76    8.9   1.0   WNW   0.08   8.0   WNW   13.0   12.7   12.7  1010.9  0.00  0.00   0.019   0.000   21.9    50   11.0   21.2   9.25  .0736    117    1    100.0    5 
24/04/17  19:00   13.1   13.1   13.0    74    8.5   5.0    NW   0.42  15.0   NNW   12.6   12.7   12.3  1010.9  0.00  0.00   0.018   0.000   21.9    50   11.0   21.2   9.25  .0736    117    1    100.0    5 
24/04/17  19:05   13.0   13.0   13.0    73    8.3   4.0    NW   0.33  14.0    NW   12.8   12.7   12.5  1011.0  0.00  0.00   0.019   0.000   21.9    50   11.0   21.2   9.25  .0736    117    1    100.0    5 
24/04/17  19:10   12.9   13.0   12.9    73    8.2   4.0   NNW   0.33  13.0     N   12.7   12.6   12.3  1011.0  0.00  0.00   0.019   0.000   21.9    50   11.0   21.2   9.25  .0736    117    1    100.0    5 
24/04/17  19:15   12.7   12.8   12.7    73    8.0   5.0    NW   0.42  12.0   NNW   12.2   12.4   11.9  1010.9  0.00  0.00   0.019   0.000   21.8    50   10.9   21.2   9.25  .0736    117    1    100.0    5 
24/04/17  19:20   12.7   12.7   12.7    73    7.9   3.0    NW   0.25  12.0    NW   12.7   12.3   12.3  1010.9  0.00  0.00   0.020   0.000   21.8    50   10.9   21.2   9.25  .0736    117    1    100.0    5 
24/04/17  19:25   12.5   12.6   12.5    72    7.6   5.0    NW   0.42  12.0    NW   11.9   12.1   11.6  1010.8  0.00  0.00   0.020   0.000   21.8    50   10.9   21.2   9.25  .0736    117    1    100.0    5 
24/04/17  19:30   12.4   12.5   12.4    73    7.7   3.0    NW   0.25  11.0    NW   12.4   12.1   12.1  1010.8  0.00  0.00   0.020   0.000   21.8    50   10.9   21.2   9.25  .0736    115    1    100.0    5 
24/04/17  19:35   12.3   12.4   12.3    72    7.4   1.0    NW   0.08   7.0    NW   12.3   12.0   12.0  1010.8  0.00  0.00   0.021   0.000   21.8    50   10.9   21.2   9.25  .0736    116    1    100.0    5 
24/04/17  19:40   12.3   12.3   12.3    73    7.6   0.0    NW   0.00   3.0    NW   12.3   12.0   12.0  1010.8  0.00  0.00   0.021   0.000   21.8    50   10.9   21.1   9.25  .0736    117    1    100.0    5 
24/04/17  19:45   12.3   12.3   12.3    73    7.6   2.0    NW   0.17   8.0    NW   12.3   11.9   11.9  1010.9  0.00  0.00   0.021   0.000   21.8    50   10.9   21.1   9.25  .0736    116    1    100.0    5 
24/04/17  19:50   12.3   12.3   12.3    72    7.4   2.0    NW   0.17   7.0    NW   12.3   11.9   11.9  1010.9  0.00  0.00   0.021   0.000   21.8    50   10.9   21.1   9.25  .0736    117    1    100.0    5 
24/04/17  19:55   12.2   12.3   12.2    71    7.1   3.0    NW   0.25   9.0   WNW   12.2   11.8   11.8  1010.9  0.00  0.00   0.021   0.000   21.8    50   10.9   21.1   9.25  .0736    116    1    100.0    5 
24/04/17  20:00   12.2   12.2   12.2    72    7.3   2.0    NW   0.17   9.0    NW   12.2   11.8   11.8  1010.9  0.00  0.00   0.021   0.000   21.8    50   10.9   21.1   9.25  .0736    117    1    100.0    5 
24/04/17  20:05   12.2   12.2   12.2    71    7.1   5.0    NW   0.42  11.0   NNW   11.6   11.8   11.2  1010.9  0.00  0.00   0.021   0.000   21.8    50   10.9   21.1   9.25  .0736    117    1    100.0    5 
24/04/17  20:10   12.1   12.2   12.1    71    7.0   3.0    NW   0.25  10.0    NW   12.1   11.7   11.7  1011.0  0.00  0.00   0.022   0.000   21.7    50   10.8   21.0   9.25  .0736    117    1    100.0    5 
24/04/17  20:15   12.1   12.1   12.1    72    7.2   3.0    NW   0.25  14.0   NNW   12.1   11.7   11.7  1011.0  0.00  0.00   0.022   0.000   21.7    50   10.8   21.0   9.25  .0736    117    1    100.0    5 
24/04/17  20:20   12.0   12.1   12.0    72    7.1   5.0    NW   0.42  13.0   WNW   11.3   11.7   11.0  1011.1  0.00  0.00   0.022   0.000   21.7    50   10.8   20.9   9.25  .0737    118    1    100.0    5 
24/04/17  20:25   11.8   12.0   11.8    72    6.9   9.0     N   0.75  18.0     N    9.9   11.5    9.6  1011.2  0.00  0.00   0.023   0.000   21.7    50   10.8   20.9   9.25  .0737    116    1    100.0    5 
24/04/17  20:30   11.7   11.8   11.7    72    6.8   6.0   NNW   0.50  17.0     N   10.7   11.3   10.3  1011.3  0.00  0.00   0.023   0.000   21.7    50   10.8   20.9   9.25  .0737    117    1    100.0    5 
24/04/17  20:35   11.5   11.7   11.5    73    6.8   3.0   NNW   0.25  11.0   NNW   11.5   11.2   11.2  1011.3  0.00  0.00   0.024   0.000   21.6    50   10.7   20.8   9.25  .0737    117    1    100.0    5 
24/04/17  20:40   11.4   11.5   11.4    73    6.7   2.0   NNW   0.17   9.0     N   11.4   11.1   11.1  1011.4  0.00  0.00   0.024   0.000   21.6    50   10.7   20.8   9.25  .0737    115    1    100.0    5 
24/04/17  20:45   11.3   11.4   11.3    73    6.6   4.0   NNW   0.33  11.0   NNW   10.8   11.0   10.6  1011.4  0.00  0.00   0.024   0.000   21.6    49   10.4   20.8   9.05  .0737    117    1    100.0    5 
24/04/17  20:50   11.2   11.3   11.2    74    6.7   7.0     N   0.58  15.0   NNW    9.8   10.9    9.6  1011.4  0.00  0.00   0.025   0.000   21.6    49   10.4   20.8   9.05  .0737    117    1    100.0    5 
24/04/17  20:55   10.9   11.2   10.9    75    6.7   4.0     N   0.33  17.0     N   10.4   10.7   10.2  1011.4  0.00  0.00   0.026   0.000   21.6    49   10.4   20.7   9.05  .0737    116    1    100.0    5 
24/04/17  21:00   10.8   10.9   10.8    76    6.7   4.0   NNW   0.33  14.0    NW   10.3   10.6   10.1  1011.6  0.00  0.00   0.026   0.000   21.6    49   10.4   20.7   9.05  .0738    116    1    100.0    5 
24/04/17  21:05   10.6   10.7   10.6    77    6.7   4.0     N   0.33  12.0     N   10.1   10.5    9.9  1011.7  0.00  0.00   0.027   0.000   21.5    49   10.3   20.6   9.05  .0738    117    1    100.0    5 
24/04/17  21:10   10.3   10.6   10.3    77    6.5   4.0     N   0.33  12.0     N    9.8   10.2    9.7  1011.7  0.00  0.00   0.028   0.000   21.5    49   10.3   20.6   9.05  .0738    117    1    100.0    5 
24/04/17  21:15   10.2   10.3   10.2    77    6.3   4.0     N   0.33  10.0     N    9.6   10.1    9.5  1011.8  0.00  0.00   0.028   0.000   21.5    49   10.3   20.6   9.05  .0738    117    1    100.0    5 
24/04/17  21:20   10.0   10.1   10.0    77    6.2   3.0   NNW   0.25  11.0   NNW    9.8    9.9    9.8  1011.7  0.00  0.00   0.029   0.000   21.4    49   10.3   20.6   9.05  .0738    117    1    100.0    5 
24/04/17  21:25    9.9   10.0    9.9    78    6.3   3.0     N   0.25  10.0     N    9.8    9.9    9.7  1011.9  0.00  0.00   0.029   0.000   21.4    49   10.3   20.6   9.05  .0738    118    1    100.0    5 
24/04/17  21:30    9.9    9.9    9.9    78    6.2   2.0     N   0.17  11.0   NNW    9.9    9.8    9.8  1011.8  0.00  0.00   0.029   0.000   21.4    49   10.2   20.5   9.05  .0738    117    1    100.0    5 
24/04/17  21:35    9.9    9.9    9.9    79    6.4   3.0   NNW   0.25   9.0    NW    9.7    9.8    9.7  1011.8  0.00  0.00   0.029   0.000   21.4    49   10.2   20.5   9.05  .0738    117    1    100.0    5 
24/04/17  21:40    9.8    9.9    9.8    79    6.4   3.0   NNW   0.25  10.0   NNW    9.6    9.8    9.6  1011.8  0.00  0.00   0.030   0.000   21.4    49   10.2   20.5   9.05  .0738    117    1    100.0    5 
24/04/17  21:45    9.8    9.8    9.8    79    6.4   1.0   NNW   0.08   7.0   NNW    9.8    9.8    9.8  1011.9  0.00  0.00   0.030   0.000   21.4    49   10.2   20.5   9.05  .0738    117    1    100.0    5 
24/04/17  21:50    9.8    9.8    9.8    79    6.4   2.0   NNW   0.17   8.0   NNW    9.8    9.8    9.8  1011.9  0.00  0.00   0.030   0.000   21.4    49   10.2   20.5   9.05  .0738    116    1    100.0    5 
24/04/17  21:55    9.8    9.8    9.8    80    6.5   1.0   NNW   0.08   5.0    NW    9.8    9.8    9.8  1011.8  0.00  0.00   0.030   0.000   21.3    49   10.2   20.4   9.05  .0738    117    1    100.0    5 
24/04/17  22:00    9.8    9.8    9.8    80    6.5   4.0   NNW   0.33  11.0   NNW    9.1    9.8    9.1  1011.8  0.00  0.00   0.030   0.000   21.3    49   10.2   20.4   9.05  .0738    117    1    100.0    5 
24/04/17  22:05    9.7    9.8    9.7    80    6.4   4.0   NNW   0.33  10.0    NW    9.1    9.7    9.1  1011.8  0.00  0.00   0.030   0.000   21.3    49   10.2   20.4   9.05  .0738    117    1    100.0    5 
24/04/17  22:10    9.7    9.7    9.7    80    6.4   4.0     N   0.33  11.0   NNW    9.0    9.6    8.9  1011.8  0.00  0.00   0.030   0.000   21.3    49   10.1   20.3   9.05  .0739    117    1    100.0    5 
24/04/17  22:15    9.6    9.7    9.6    80    6.3   6.0   NNW   0.50  14.0    NW    8.2    9.5    8.1  1011.9  0.00  0.00   0.030   0.000   21.3    49   10.1   20.3   9.05  .0739    117    1    100.0    5 
24/04/17  22:20    9.5    9.6    9.5    80    6.2   5.0   NNW   0.42  10.0    NW    8.4    9.4    8.3  1011.9  0.00  0.00   0.031   0.000   21.3    49   10.1   20.3   9.05  .0739    116    1    100.0    5 
24/04/17  22:25    9.3    9.5    9.3    80    6.1   6.0   NNW   0.50  13.0   NNW    7.9    9.3    7.9  1011.8  0.00  0.00   0.031   0.000   21.2    49   10.1   20.3   9.05  .0739    116    1    100.0    5 
24/04/17  22:30    9.2    9.3    9.2    79    5.8   3.0   NNW   0.25  14.0    NW    8.9    9.2    8.9  1011.8  0.00  0.00   0.032   0.000   21.2    49   10.1   20.3   9.05  .0739    118    1    100.0    5 
24/04/17  22:35    9.1    9.2    9.1    78    5.5   4.0   NNW   0.33  10.0   NNW    8.3    9.0    8.2  1011.9  0.00  0.00   0.032   0.000   21.2    49   10.1   20.3   9.05  .0739    116    1    100.0    5 
24/04/17  22:40    9.0    9.1    9.0    77    5.2   5.0   NNW   0.42  13.0   NNW    7.8    8.9    7.7  1011.9  0.00  0.00   0.032   0.000   21.2    49   10.0   20.2   9.05  .0739    117    1    100.0    5 
24/04/17  22:45    8.8    9.0    8.8    74    4.4   7.0   NNW   0.58  17.0   NNW    7.1    8.7    6.9  1011.9  0.00  0.00   0.033   0.000   21.2    49   10.0   20.2   9.05  .0739    115    1    100.0    5 
24/04/17  22:50    8.8    8.8    8.8    72    4.0   4.0   NNW   0.33  13.0     N    8.0    8.6    7.8  1011.9  0.00  0.00   0.033   0.000   21.1    49   10.0   20.1   9.05  .0739    117    1    100.0    5 
24/04/17  22:55    8.7    8.8    8.7    68    3.1   6.0   NNW   0.50  13.0   NNW    7.1    8.3    6.8  1011.8  0.00  0.00   0.034   0.000   21.1    49   10.0   20.1   9.05  .0739    117    1    100.0    5 
24/04/17  23:00    8.6    8.7    8.6    66    2.6   6.0   NNW   0.50  13.0     N    7.1    8.2    6.7  1011.8  0.00  0.00   0.034   0.000   21.1    49    9.9   20.1   9.05  .0739    117    1    100.0    5 
24/04/17  23:05    8.6    8.6    8.6    64    2.1   6.0   NNW   0.50  12.0   NNW    7.0    8.2    6.6  1011.8  0.00  0.00   0.034   0.000   21.1    49    9.9   20.1   9.05  .0739    117    1    100.0    5 
24/04/17  23:10    8.6    8.6    8.6    63    1.9   3.0   NNW   0.25  12.0   NNW    8.2    8.2    7.8  1011.9  0.00  0.00   0.034   0.000   21.1    49    9.9   20.1   9.05  .0739    117    1    100.0    5 
24/04/17  23:15    8.6    8.6    8.6    61    1.5   3.0   NNW   0.25  10.0   NNW    8.2    8.1    7.7  1011.9  0.00  0.00   0.034   0.000   21.0    49    9.9   20.1   9.05  .0740    117    1    100.0    5 
24/04/17  23:20    8.5    8.6    8.5    60    1.2   2.0    NW   0.17   9.0   NNW    8.5    8.1    8.1  1011.9  0.00  0.00   0.034   0.000   21.0    49    9.9   20.1   9.05  .0740    115    1    100.0    5 
24/04/17  23:25    8.5    8.6    8.5    61    1.4   2.0   NNW   0.17   9.0     N    8.5    8.1    8.1  1011.9  0.00  0.00   0.034   0.000   20.9    49    9.8   20.0   9.06  .0740    117    1    100.0    5 
24/04/17  23:30    8.4    8.5    8.4    61    1.3   1.0   NNW   0.08   7.0   NNW    8.4    8.0    8.0  1011.9  0.00  0.00   0.034   0.000   20.9    49    9.8   20.0   9.06  .0740    116    1    100.0    5 
24/04/17  23:35    8.4    8.4    8.4    61    1.3   2.0    NW   0.17   7.0    NW    8.4    8.0    8.0  1011.9  0.00  0.00   0.034   0.000   20.9    49    9.8   20.0   9.06  .0740    118    1    100.0    5 
24/04/17  23:40    8.4    8.4    8.4    61    1.3   6.0    NW   0.50  13.0    NW    6.8    7.9    6.3  1012.0  0.00  0.00   0.035   0.000   20.9    49    9.8   19.9   9.06  .0740    117    1    100.0    5 
24/04/17  23:45    8.3    8.4    8.3    58    0.5   8.0    NW   0.67  17.0   NNW    6.1    7.8    5.6  1012.0  0.00  0.00   0.035   0.000   20.9    48    9.5   19.9   8.86  .0740    117    1    100.0    5 
24/04/17  23:50    8.3    8.3    8.3    56    0.0   6.0   NNW   0.50  12.0    NW    6.7    7.7    6.1  1012.1  0.00  0.00   0.035   0.000   20.9    48    9.5   19.9   8.86  .0740    117    1    100.0    5 
24/04/17  23:55    8.2    8.3    8.2    51   -1.3  11.0   NNW   0.92  23.0   NNW    5.1    7.6    4.4  1012.0  0.00  0.00   0.035   0.000   20.8    48    9.4   19.9   8.86  .0740    116    1    100.0    5 
25/04/17  00:00    8.2    8.2    8.2    49   -1.9   9.0   NNW   0.75  17.0   NNW    5.6    7.5    4.9  1012.2  0.00  0.00   0.035   0.000   20.8    48    9.4   19.8   8.86  .0741    116    1    100.0    5 
25/04/17   0:05    8.1    8.2    8.1    48   -2.3  11.0   NNW   0.92  18.0   NNW    4.9    7.4    4.2  1012.2  0.00  0.00   0.036   0.000   20.7    48    9.3   19.8   8.86  .0741    116    1    100.0    5 
25/04/17   0:10    8.0    8.1    8.0    47   -2.6  10.0   NNW   0.83  18.0   NNW    5.1    7.3    4.4  1012.2  0.00  0.00   0.036   0.000   20.7    48    9.3   19.7   8.87  .0741    117    1    100.0    5 
25/04/17   0:15    7.9    8.0    7.9    48   -2.5  10.0   NNW   0.83  19.0    NW    4.9    7.2    4.2  1012.1  0.00  0.00   0.036   0.000   20.7    47    8.9   19.7   8.77  .0741    116    1    100.0    5 
25/04/17   0:20    7.8    7.9    7.8    48   -2.6   6.0   NNW   0.50  17.0    NW    6.1    7.1    5.4  1012.2  0.00  0.00   0.037   0.000   20.6    48    9.2   19.7   8.87  .0741    117    1    100.0    5 
25/04/17   0:25    7.7    7.8    7.7    49   -2.3   6.0   NNW   0.50  13.0     N    6.0    7.1    5.4  1012.2  0.00  0.00   0.037   0.000   20.6    47    8.9   19.7   8.77  .0741    117    1    100.0    5 
25/04/17   0:30    7.6    7.7    7.6    48   -2.7   9.0   NNW   0.75  17.0   NNW    4.9    6.9    4.2  1012.2  0.00  0.00   0.037   0.000   20.6    47    8.8   19.6   8.77  .0741    116    1    100.0    5 
25/04/17   0:35    7.5    7.6    7.5    49   -2.5   9.0   NNW   0.75  16.0   NNW    4.8    6.9    4.2  1012.3  0.00  0.00   0.038   0.000   20.5    47    8.8   19.6   8.77  .0742    116    1    100.0    5 
25/04/17   0:40    7.4    7.5    7.4    49   -2.6  10.0   NNW   0.83  17.0    NW    4.3    6.8    3.7  1012.1  0.00  0.00   0.038   0.000   20.5    47    8.8   19.6   8.77  .0742    116    1    100.0    5 
25/04/17   0:45    7.2    7.4    7.2    50   -2.5   7.0   NNW   0.58  13.0    NW    5.1    6.6    4.5  1012.0  0.00  0.00   0.039   0.000   20.4    47    8.7   19.5   8.77  .0742    115    1    100.0    5 
25/04/17   0:50    7.1    7.2    7.1    50   -2.7  12.0   NNW   1.00  22.0     N    3.4    6.4    2.8  1011.8  0.00  0.00   0.039   0.000   20.4    47    8.7   19.4   8.78  .0742    117    1    100.0    5 
25/04/17   0:55    6.8    7.1    6.8    51   -2.6  10.0   NNW   0.83  19.0    NW    3.7    6.2    3.1  1011.8  0.00  0.00   0.040   0.000   20.3    47    8.6   19.4   8.78  .0742    117    1    100.0    5 
25/04/17   1:00    6.6    6.8    6.6    50   -3.1  12.0   NNW   1.00  24.0     N    2.9    6.0    2.3  1011.9  0.00  0.00   0.041   0.000   20.3    46    8.3   19.3   8.65  .0742    116    1    100.0    5 
25/04/17   1:05    6.4    6.6    6.4    50   -3.2  10.0   NNW   0.83  21.0    NW    3.2    5.8    2.6  1012.0  0.00  0.00   0.041   0.000   20.3    46    8.3   19.3   8.65  .0742    116    1    100.0    5 
25/04/17   1:10    6.3    6.4    6.3    51   -3.1  10.0   NNW   0.83  20.0   NNW    3.1    5.7    2.4  1012.1  0.00  0.00   0.042   0.000   20.2    46    8.2   19.3   8.65  .0743    117    1    100.0    5 
25/04/17   1:15    6.1    6.3    6.1    52   -3.0  10.0   NNW   0.83  17.0   NNW    2.8    5.5    2.2  1012.0  0.00  0.00   0.042   0.000   20.2    46    8.2   19.2   8.65  .0743    115    1    100.0    5 
25/04/17   1:20    6.0    6.1    6.0    52   -3.1   8.0   NNW   0.67  16.0    NW    3.3    5.4    2.7  1012.0  0.00  0.00   0.043   0.000   20.1    46    8.1   19.2   8.65  .0743    117    1    100.0    5 
25/04/17   1:25    5.8    6.0    5.8    52   -3.3  10.0   NNW   0.83  21.0   NNW    2.6    5.2    1.9  1012.0  0.00  0.00   0.043   0.000   20.1    46    8.1   19.2   8.65  .0743    116    1    100.0    5 
25/04/17   1:30    5.7    5.8    5.7    52   -3.4  10.0   NNW   0.83  21.0    NW    2.4    5.1    1.8  1012.0  0.00  0.00   0.044   0.000   20.1    46    8.1   19.1   8.65  .0743    115    1    100.0    5 
25/04/17   1:35    5.6    5.7    5.6    52   -3.5  10.0   NNW   0.83  22.0   NNW    2.3    5.0    1.7  1012.0  0.00  0.00   0.044   0.000   20.0    46    8.0   19.1   8.65  .0743    117    1    100.0    5 
25/04/17   1:40    5.5    5.6    5.5    52   -3.6  10.0   NNW   0.83  17.0   NNW    2.2    4.9    1.6  1012.0  0.00  0.00   0.045   0.000   19.9    46    8.0   19.0   8.65  .0743    116    1    100.0    5 
64068